Time;durP1;ratioP1;P1;durP2;ratioP2;P2;SDS_P1;SDS_P2;PMS_P1;PMS_P2;Temp;Humidity;BMP_temperature;BMP_pressure;BME280_temperature;BME280_humidity;BME280_pressure;Samples;Min_cycle;Max_cycle;Signal;HPM_P1;HPM_P2
2021/06/04 00:01:46;;;;;;;8.50;7.80;;;18.00;99.90;;;;;;6251667;28;20475;-59
2021/06/04 00:04:49;;;;;;;8.30;7.70;;;18.10;99.90;;;;;;6235750;28;21196;-58
2021/06/04 00:07:52;;;;;;;8.27;7.60;;;18.10;99.90;;;;;;6224860;28;20529;-58
2021/06/04 00:10:58;;;;;;;8.03;7.43;;;18.10;99.90;;;;;;6240530;28;20972;-58
2021/06/04 00:14:04;;;;;;;7.80;7.20;;;18.10;99.90;;;;;;6236358;28;20828;-58
2021/06/04 00:17:13;;;;;;;7.97;7.37;;;18.10;99.90;;;;;;6237678;28;20821;-58
2021/06/04 00:20:20;;;;;;;8.50;7.67;;;18.00;99.90;;;;;;6240441;28;20464;-58
2021/06/04 00:23:22;;;;;;;8.27;7.47;;;18.00;99.90;;;;;;6239596;28;21006;-59
2021/06/04 00:26:26;;;;;;;8.87;8.00;;;18.00;99.90;;;;;;6241502;28;20467;-58
2021/06/04 00:29:29;;;;;;;8.50;7.90;;;18.00;99.90;;;;;;6243186;28;20458;-58
2021/06/04 00:32:33;;;;;;;9.13;8.37;;;17.80;99.90;;;;;;6239031;28;20435;-58
2021/06/04 00:35:37;;;;;;;7.87;7.17;;;17.80;99.90;;;;;;6240446;28;20479;-58
2021/06/04 00:38:39;;;;;;;9.57;7.20;;;17.80;99.90;;;;;;6236363;28;20444;-58
2021/06/04 00:41:47;;;;;;;8.30;7.70;;;17.70;99.90;;;;;;6239311;28;20436;-62
2021/06/04 00:44:54;;;;;;;9.30;8.50;;;17.60;99.90;;;;;;6242429;28;20481;-63
2021/06/04 00:47:59;;;;;;;8.53;7.73;;;17.60;99.90;;;;;;6239974;28;20771;-63
2021/06/04 00:51:06;;;;;;;7.80;7.10;;;17.60;99.90;;;;;;6239859;28;20485;-58
2021/06/04 00:54:10;;;;;;;9.10;8.20;;;17.50;99.90;;;;;;6240224;28;20475;-61
2021/06/04 00:57:13;;;;;;;8.00;7.40;;;17.50;99.90;;;;;;6238574;28;20829;-61
2021/06/04 01:00:23;;;;;;;8.73;8.10;;;17.40;99.90;;;;;;6236360;28;20973;-61
2021/06/04 01:03:30;;;;;;;8.30;7.70;;;17.50;99.90;;;;;;6240102;28;20491;-61
2021/06/04 01:06:39;;;;;;;8.60;8.00;;;17.50;99.90;;;;;;6248592;28;20482;-61
2021/06/04 01:10:05;;;;;;;8.13;7.43;;;17.40;99.90;;;;;;6250752;28;20964;-61
2021/06/04 01:13:16;;;;;;;8.60;7.80;;;17.50;99.90;;;;;;6250935;28;20475;-61
2021/06/04 01:16:23;;;;;;;8.70;8.07;;;17.40;99.90;;;;;;6251228;28;20992;-61
2021/06/04 01:19:42;;;;;;;8.30;7.23;;;17.30;99.90;;;;;;6251099;28;20469;-61
2021/06/04 01:23:12;;;;;;;9.97;8.37;;;17.30;99.90;;;;;;6250789;28;20484;-61
2021/06/04 01:26:21;;;;;;;9.33;8.63;;;17.30;99.90;;;;;;6250881;28;20467;-61
2021/06/04 01:29:29;;;;;;;9.10;8.40;;;17.30;99.90;;;;;;6251147;28;20475;-61
2021/06/04 01:32:34;;;;;;;9.27;8.57;;;17.30;99.90;;;;;;6250848;28;20446;-62
2021/06/04 01:35:41;;;;;;;10.07;9.17;;;17.30;99.90;;;;;;6251153;28;20482;-62
2021/06/04 01:38:45;;;;;;;9.27;8.40;;;17.20;99.90;;;;;;6250651;28;20897;-62
2021/06/04 01:41:50;;;;;;;10.20;9.33;;;17.20;99.90;;;;;;6250911;28;20478;-62
2021/06/04 01:44:57;;;;;;;8.47;7.77;;;17.20;99.90;;;;;;6250560;28;20463;-62
2021/06/04 01:48:06;;;;;;;9.67;8.70;;;17.20;99.90;;;;;;6250716;28;20474;-62
2021/06/04 01:51:15;;;;;;;9.23;8.53;;;17.20;99.90;;;;;;6250300;28;20470;-62
2021/06/04 01:54:23;;;;;;;9.10;8.40;;;17.20;99.90;;;;;;6250341;28;20996;-60
2021/06/04 01:57:32;;;;;;;8.97;8.07;;;17.20;99.90;;;;;;6250272;28;20810;-62
2021/06/04 02:00:38;;;;;;;8.47;7.77;;;17.20;99.90;;;;;;6246983;28;117272;-59
2021/06/04 02:03:41;;;;;;;8.20;7.60;;;17.20;99.90;;;;;;6251146;28;20694;-60
2021/06/04 02:06:45;;;;;;;8.33;7.63;;;17.20;99.90;;;;;;6251354;28;20470;-63
2021/06/04 02:09:48;;;;;;;9.43;8.23;;;17.20;99.90;;;;;;6250861;28;20470;-61
2021/06/04 02:12:52;;;;;;;10.83;9.83;;;17.20;99.90;;;;;;6251098;28;20467;-58
2021/06/04 02:16:11;;;;;;;8.90;8.20;;;17.10;99.90;;;;;;6241090;28;20494;-61
2021/06/04 02:19:23;;;;;;;10.00;9.10;;;17.10;99.90;;;;;;6251189;28;20506;-62
2021/06/04 02:22:31;;;;;;;9.40;8.60;;;17.10;99.90;;;;;;6251016;28;20463;-61
2021/06/04 02:25:54;;;;;;;9.80;8.83;;;17.10;99.90;;;;;;6250852;28;20479;-63
2021/06/04 02:29:05;;;;;;;9.53;8.73;;;17.10;99.90;;;;;;6250773;28;20546;-60
2021/06/04 02:32:14;;;;;;;8.70;7.90;;;17.10;99.90;;;;;;6250674;28;20475;-62
2021/06/04 02:35:24;;;;;;;8.67;7.30;;;17.00;99.90;;;;;;6250264;28;20490;-58
2021/06/04 02:38:32;;;;;;;8.60;7.80;;;17.00;99.90;;;;;;6250509;28;20913;-59
2021/06/04 02:41:38;;;;;;;8.80;8.00;;;17.00;99.90;;;;;;6250111;28;20789;-62
2021/06/04 02:44:48;;;;;;;8.33;7.53;;;17.00;99.90;;;;;;6250324;28;20469;-62
2021/06/04 02:47:53;;;;;;;8.80;8.10;;;16.90;99.90;;;;;;6250412;28;20465;-63
2021/06/04 02:51:03;;;;;;;9.67;8.50;;;16.90;99.90;;;;;;6250618;28;20463;-62
2021/06/04 02:54:10;;;;;;;8.30;7.50;;;16.90;99.90;;;;;;6249770;28;20821;-62
2021/06/04 02:57:16;;;;;;;8.77;8.07;;;16.90;99.90;;;;;;6250021;28;20474;-63
2021/06/04 03:00:26;;;;;;;7.77;7.27;;;16.80;99.90;;;;;;6249570;28;20829;-62
2021/06/04 03:03:29;;;;;;;7.83;7.20;;;16.80;99.90;;;;;;6250264;28;20475;-63
2021/06/04 03:06:36;;;;;;;8.33;7.70;;;16.70;99.90;;;;;;6249752;28;20807;-62
2021/06/04 03:09:44;;;;;;;8.83;8.07;;;16.80;99.90;;;;;;6250026;28;20475;-62
2021/06/04 03:12:48;;;;;;;7.60;6.90;;;16.70;99.90;;;;;;6249708;28;20809;-61
2021/06/04 03:15:55;;;;;;;7.47;6.83;;;16.70;99.90;;;;;;6249816;28;20479;-62
2021/06/04 03:19:03;;;;;;;8.07;7.40;;;16.60;99.90;;;;;;6245305;28;20478;-62
2021/06/04 03:22:10;;;;;;;8.07;7.33;;;16.60;99.90;;;;;;6249735;28;20969;-61
2021/06/04 03:25:17;;;;;;;8.50;7.80;;;16.50;99.90;;;;;;6249201;28;20470;-61
2021/06/04 03:28:23;;;;;;;8.27;7.47;;;16.50;99.90;;;;;;6249786;28;20467;-59
2021/06/04 03:31:30;;;;;;;8.10;7.43;;;16.50;99.90;;;;;;6249132;28;20817;-58
2021/06/04 03:34:33;;;;;;;7.30;6.80;;;16.50;99.90;;;;;;6249515;28;20486;-59
2021/06/04 03:37:36;;;;;;;8.80;7.07;;;16.50;99.90;;;;;;6249101;28;20991;-59
2021/06/04 03:40:39;;;;;;;8.73;8.03;;;16.50;99.90;;;;;;6249371;28;20467;-59
2021/06/04 03:43:42;;;;;;;8.00;7.40;;;16.50;99.90;;;;;;6244118;28;20470;-62
2021/06/04 03:46:47;;;;;;;7.50;7.00;;;16.50;99.90;;;;;;6249340;28;20459;-60
2021/06/04 03:49:50;;;;;;;7.63;7.13;;;16.50;99.90;;;;;;6249335;28;20794;-61
2021/06/04 03:52:54;;;;;;;7.70;7.00;;;16.50;99.90;;;;;;6249235;28;20470;-60
2021/06/04 03:55:57;;;;;;;8.20;7.50;;;16.50;99.90;;;;;;6248957;28;20474;-60
2021/06/04 03:59:00;;;;;;;8.00;7.40;;;16.50;99.90;;;;;;6248812;28;20482;-62
2021/06/04 04:02:09;;;;;;;7.77;6.97;;;16.60;99.90;;;;;;6249621;28;20811;-62
2021/06/04 04:05:13;;;;;;;7.90;7.30;;;16.60;99.90;;;;;;6248753;28;21124;-58
2021/06/04 04:08:19;;;;;;;8.50;7.73;;;16.70;99.90;;;;;;6249013;28;20474;-61
2021/06/04 04:11:24;;;;;;;9.23;7.77;;;16.70;99.90;;;;;;6248933;28;20486;-58
2021/06/04 04:14:28;;;;;;;6.93;6.40;;;16.70;99.90;;;;;;6248896;28;20459;-60
2021/06/04 04:17:32;;;;;;;10.70;7.80;;;16.80;99.90;;;;;;6249032;28;20474;-61
2021/06/04 04:20:39;;;;;;;8.87;7.90;;;16.90;99.90;;;;;;6248862;28;20910;-61
2021/06/04 04:23:45;;;;;;;8.17;7.57;;;17.00;99.90;;;;;;6248573;28;20443;-61
2021/06/04 04:26:49;;;;;;;8.37;7.67;;;17.10;99.90;;;;;;6249310;28;20454;-61
2021/06/04 04:29:51;;;;;;;7.93;7.23;;;17.20;99.90;;;;;;6248914;28;20470;-61
2021/06/04 04:32:55;;;;;;;16.40;8.30;;;17.20;99.90;;;;;;6249771;28;20549;-62
2021/06/04 04:36:00;;;;;;;8.03;7.43;;;17.30;99.90;;;;;;6248457;28;20542;-62
2021/06/04 04:39:05;;;;;;;7.93;7.27;;;17.40;99.90;;;;;;6252337;28;20455;-59
2021/06/04 04:42:10;;;;;;;9.00;7.83;;;17.50;99.90;;;;;;6253646;28;20467;-60
2021/06/04 04:45:15;;;;;;;7.90;7.37;;;17.70;99.90;;;;;;6252898;28;20471;-62
2021/06/04 04:48:19;;;;;;;8.17;7.37;;;17.80;99.90;;;;;;6253370;28;20470;-61
2021/06/04 04:51:24;;;;;;;8.37;7.67;;;18.00;99.90;;;;;;6252596;28;20475;-62
2021/06/04 04:54:27;;;;;;;10.80;9.90;;;18.10;99.90;;;;;;6252816;28;20519;-62
2021/06/04 04:57:30;;;;;;;8.47;7.53;;;18.20;99.90;;;;;;6252721;28;20470;-62
2021/06/04 05:00:33;;;;;;;7.53;6.93;;;18.20;99.90;;;;;;6252784;28;20956;-59
2021/06/04 05:03:38;;;;;;;8.73;7.97;;;18.30;99.90;;;;;;6252876;28;20481;-60
2021/06/04 05:06:40;;;;;;;7.40;6.80;;;18.40;99.90;;;;;;6252663;28;20486;-61
2021/06/04 05:09:43;;;;;;;12.53;7.63;;;18.60;99.90;;;;;;6252504;28;21006;-61
2021/06/04 05:12:46;;;;;;;9.17;8.27;;;18.70;99.90;;;;;;6252812;28;20485;-63
2021/06/04 05:15:48;;;;;;;9.00;8.20;;;18.80;99.70;;;;;;6252275;28;20236;-59
2021/06/04 05:18:53;;;;;;;9.97;8.63;;;19.00;99.50;;;;;;6252158;28;20474;-62
2021/06/04 05:21:56;;;;;;;9.83;8.93;;;19.10;99.20;;;;;;6252447;28;20231;-60
2021/06/04 05:24:59;;;;;;;9.63;8.77;;;19.20;98.90;;;;;;6251989;28;20236;-59
2021/06/04 05:28:03;;;;;;;10.17;8.27;;;19.40;98.90;;;;;;6243152;28;20478;-60
2021/06/04 05:31:08;;;;;;;10.23;9.43;;;19.60;98.70;;;;;;6251901;28;20236;-59
2021/06/04 05:34:13;;;;;;;9.63;8.83;;;19.70;98.50;;;;;;6252167;28;20247;-62
2021/06/04 05:37:16;;;;;;;10.07;9.20;;;19.80;98.30;;;;;;6251687;28;20243;-62
2021/06/04 05:40:21;;;;;;;9.77;8.97;;;20.00;98.00;;;;;;6251891;28;20229;-62
2021/06/04 05:43:27;;;;;;;10.10;9.20;;;20.10;97.80;;;;;;6251584;28;20232;-62
2021/06/04 05:46:30;;;;;;;10.90;8.90;;;20.20;97.60;;;;;;6251833;28;20255;-62
2021/06/04 05:49:34;;;;;;;10.03;9.33;;;20.40;97.20;;;;;;6250297;28;20228;-62
2021/06/04 05:52:37;;;;;;;9.33;8.53;;;20.60;97.40;;;;;;6251840;28;20259;-63
2021/06/04 05:55:41;;;;;;;9.90;9.00;;;20.70;96.90;;;;;;6251196;28;20228;-64
2021/06/04 05:58:45;;;;;;;10.90;9.80;;;21.00;96.50;;;;;;6251453;28;20550;-60
2021/06/04 06:01:48;;;;;;;11.93;10.70;;;21.10;96.10;;;;;;6250940;28;20232;-64
2021/06/04 06:04:52;;;;;;;10.77;9.67;;;21.40;95.70;;;;;;6251370;28;20579;-63
2021/06/04 06:07:55;;;;;;;9.43;8.73;;;21.70;95.40;;;;;;6251213;28;20247;-63
2021/06/04 06:10:58;;;;;;;9.20;8.43;;;22.10;94.20;;;;;;6251452;28;20232;-63
2021/06/04 06:14:02;;;;;;;9.00;8.27;;;22.80;93.00;;;;;;6251327;28;20693;-60
2021/06/04 06:17:05;;;;;;;9.17;8.47;;;23.40;91.70;;;;;;6250912;28;20550;-60
2021/06/04 06:20:12;;;;;;;9.57;8.67;;;24.00;90.00;;;;;;6251112;28;20322;-60
2021/06/04 06:23:20;;;;;;;8.70;7.80;;;24.60;85.90;;;;;;6250509;28;20251;-59
2021/06/04 06:26:28;;;;;;;8.57;7.70;;;25.00;79.80;;;;;;6250723;28;20233;-59
2021/06/04 06:29:35;;;;;;;9.23;8.53;;;24.80;77.40;;;;;;6246025;28;20516;-59
2021/06/04 06:32:38;;;;;;;9.43;8.50;;;25.00;77.20;;;;;;6251365;28;20184;-60
2021/06/04 06:35:47;;;;;;;8.33;7.03;;;25.10;77.70;;;;;;6246792;28;20224;-60
2021/06/04 06:38:50;;;;;;;7.73;7.20;;;25.30;76.80;;;;;;6250335;28;20227;-60
2021/06/04 06:41:53;;;;;;;9.30;8.50;;;25.40;74.60;;;;;;6250049;28;20566;-61
2021/06/04 06:44:56;;;;;;;9.50;8.50;;;25.40;74.10;;;;;;6250507;28;20235;-61
2021/06/04 06:47:59;;;;;;;10.03;8.53;;;25.60;73.00;;;;;;6249953;28;20242;-62
2021/06/04 06:51:04;;;;;;;9.17;7.47;;;25.80;71.80;;;;;;6250257;28;20731;-63
2021/06/04 06:54:10;;;;;;;8.67;8.00;;;25.90;70.50;;;;;;6250577;28;20688;-62
2021/06/04 06:57:12;;;;;;;8.30;7.80;;;25.90;69.50;;;;;;6250265;28;20373;-62
2021/06/04 07:00:20;;;;;;;7.20;6.60;;;25.90;69.40;;;;;;6249601;28;20234;-62
2021/06/04 07:03:27;;;;;;;9.07;8.37;;;26.10;69.20;;;;;;6250700;28;20232;-64
2021/06/04 07:06:34;;;;;;;7.53;7.00;;;26.10;68.20;;;;;;6249806;28;20227;-64
2021/06/04 07:09:37;;;;;;;8.00;7.30;;;27.00;67.70;;;;;;6250367;28;20318;-65
2021/06/04 07:12:40;;;;;;;6.77;6.37;;;28.10;64.20;;;;;;6249960;28;20546;-65
2021/06/04 07:15:44;;;;;;;7.47;6.87;;;29.10;59.60;;;;;;6250038;28;20241;-65
2021/06/04 07:18:50;;;;;;;8.13;7.43;;;29.20;58.40;;;;;;6250339;28;20239;-64
2021/06/04 07:21:55;;;;;;;8.30;7.70;;;29.50;57.60;;;;;;6249760;28;20232;-64
2021/06/04 07:24:58;;;;;;;7.87;7.30;;;29.70;56.40;;;;;;6250050;28;20231;-65
2021/06/04 07:28:01;;;;;;;8.20;7.60;;;30.40;55.40;;;;;;6249581;28;20224;-65
2021/06/04 07:31:08;;;;;;;8.57;7.93;;;30.60;54.10;;;;;;6249426;28;20578;-65
2021/06/04 07:34:12;;;;;;;7.80;7.20;;;30.40;53.70;;;;;;6249215;28;20236;-64
2021/06/04 07:37:22;;;;;;;8.40;7.70;;;31.00;53.10;;;;;;6235711;28;20238;-64
2021/06/04 07:40:28;;;;;;;8.77;8.07;;;31.40;52.10;;;;;;6249164;28;20242;-65
2021/06/04 07:43:34;;;;;;;7.85;7.07;;;31.70;51.30;;;;;;6249719;28;20236;-64
2021/06/04 07:46:37;;;;;;;7.82;7.32;;;32.00;50.20;;;;;;6249473;28;20297;-65
2021/06/04 07:49:41;;;;;;;9.57;8.68;;;31.80;49.70;;;;;;6243693;28;20580;-64
2021/06/04 07:52:45;;;;;;;8.13;7.53;;;30.90;50.60;;;;;;6235367;28;20231;-62
2021/06/04 07:55:48;;;;;;;8.40;7.70;;;30.50;51.40;;;;;;6228000;28;20235;-64
2021/06/04 07:58:51;;;;;;;8.53;7.93;;;30.40;51.20;;;;;;6233287;28;20217;-62
2021/06/04 08:01:54;;;;;;;7.97;7.27;;;29.70;52.10;;;;;;6240251;28;20228;-64
2021/06/04 08:04:57;;;;;;;9.40;8.40;;;29.60;53.20;;;;;;6243914;28;20234;-64
2021/06/04 08:08:03;;;;;;;7.97;7.17;;;29.00;53.20;;;;;;6236445;28;20241;-64
2021/06/04 08:11:09;;;;;;;9.37;8.67;;;28.80;53.70;;;;;;6241274;28;20250;-64
2021/06/04 08:14:15;;;;;;;8.57;7.80;;;28.50;54.40;;;;;;6237986;28;20235;-64
2021/06/04 08:17:18;;;;;;;8.67;7.97;;;28.30;54.80;;;;;;6229323;28;20228;-63
2021/06/04 08:20:24;;;;;;;8.83;8.03;;;28.10;55.50;;;;;;6235991;28;20228;-63
2021/06/04 08:23:33;;;;;;;8.77;8.07;;;28.00;56.10;;;;;;6247600;28;20238;-63
2021/06/04 08:26:36;;;;;;;9.00;8.17;;;27.90;56.20;;;;;;6243562;28;20216;-63
2021/06/04 08:29:39;;;;;;;9.20;8.40;;;27.80;56.60;;;;;;6236360;28;20197;-61
2021/06/04 08:32:42;;;;;;;8.87;8.00;;;27.80;56.80;;;;;;6250411;28;20526;-63
2021/06/04 08:35:45;;;;;;;9.07;8.37;;;27.60;56.80;;;;;;6238412;28;20212;-65
2021/06/04 08:38:49;;;;;;;8.60;7.80;;;27.80;57.00;;;;;;6251109;28;20227;-61
2021/06/04 08:41:58;;;;;;;7.43;6.83;;;27.30;57.10;;;;;;6253524;28;20229;-64
2021/06/04 08:45:29;;;;;;;8.13;7.53;;;27.00;58.00;;;;;;6253406;28;20677;-64
2021/06/04 08:48:45;;;;;;;8.73;8.00;;;27.00;58.60;;;;;;6253450;28;20235;-64
2021/06/04 08:52:02;;;;;;;9.40;8.67;;;26.80;58.80;;;;;;6252154;28;20877;-64
2021/06/04 08:55:21;;;;;;;8.10;7.43;;;26.90;58.60;;;;;;6252717;28;20254;-63
2021/06/04 08:58:41;;;;;;;7.97;7.20;;;27.10;57.80;;;;;;6252277;28;20627;-65
2021/06/04 09:01:51;;;;;;;9.17;8.30;;;27.30;58.30;;;;;;6252602;28;20236;-62
2021/06/04 09:05:00;;;;;;;7.93;7.23;;;27.30;58.00;;;;;;6265265;28;20307;-61
2021/06/04 09:08:04;;;;;;;7.70;7.03;;;27.30;58.00;;;;;;6236612;28;20227;-64
2021/06/04 09:11:25;;;;;;;9.40;8.60;;;27.20;57.60;;;;;;6237861;28;20729;-64
2021/06/04 09:14:28;;;;;;;7.27;6.60;;;27.00;58.20;;;;;;6246894;28;20232;-64
2021/06/04 09:17:40;;;;;;;8.40;7.70;;;27.10;58.40;;;;;;6261967;28;20224;-62
2021/06/04 09:20:53;;;;;;;9.23;8.37;;;27.10;58.10;;;;;;6258240;28;20287;-63
2021/06/04 09:24:01;;;;;;;7.33;6.83;;;27.30;57.90;;;;;;6251560;28;20232;-65
2021/06/04 09:27:22;;;;;;;9.87;9.07;;;27.50;58.30;;;;;;6252279;28;20235;-60
2021/06/04 09:30:32;;;;;;;8.87;8.27;;;27.40;58.60;;;;;;6252000;28;20250;-60
2021/06/04 09:33:45;;;;;;;11.47;10.57;;;27.50;58.90;;;;;;6251500;28;20574;-60
2021/06/04 09:36:52;;;;;;;8.20;7.50;;;27.80;58.80;;;;;;6256574;28;20688;-61
2021/06/04 09:40:12;;;;;;;7.87;7.27;;;27.60;58.20;;;;;;6276242;28;20703;-61
2021/06/04 09:43:22;;;;;;;8.60;8.00;;;27.70;59.00;;;;;;6257587;28;20243;-60
2021/06/04 09:46:31;;;;;;;8.70;8.10;;;27.60;59.20;;;;;;6251418;28;20239;-61
2021/06/04 09:49:44;;;;;;;9.00;8.30;;;27.50;59.20;;;;;;6251719;28;20240;-61
2021/06/04 09:53:00;;;;;;;9.37;8.67;;;27.30;59.40;;;;;;6251598;28;20238;-61
2021/06/04 09:56:18;;;;;;;9.10;8.20;;;27.10;60.50;;;;;;6251520;28;20239;-61
2021/06/04 09:59:23;;;;;;;11.40;10.30;;;26.90;60.70;;;;;;6250898;28;20227;-59
2021/06/04 10:02:33;;;;;;;9.10;8.20;;;27.20;60.50;;;;;;6251175;28;20242;-61
2021/06/04 10:05:37;;;;;;;8.30;7.80;;;27.10;61.50;;;;;;6249858;28;20231;-63
2021/06/04 10:08:43;;;;;;;8.23;7.63;;;27.20;60.30;;;;;;6251039;28;20648;-60
2021/06/04 10:11:53;;;;;;;9.30;8.50;;;27.40;61.00;;;;;;6250423;28;20207;-62
2021/06/04 10:15:00;;;;;;;8.90;8.10;;;27.50;60.40;;;;;;6251345;28;20310;-59
2021/06/04 10:18:30;;;;;;;9.17;8.43;;;27.50;60.00;;;;;;6250826;28;20231;-63
2021/06/04 10:21:38;;;;;;;8.43;7.83;;;27.50;59.50;;;;;;6250575;28;20247;-60
2021/06/04 10:24:44;;;;;;;8.47;7.77;;;27.60;59.90;;;;;;6250801;28;20246;-62
2021/06/04 10:27:50;;;;;;;8.30;7.70;;;27.70;58.70;;;;;;6250928;28;20231;-61
2021/06/04 10:30:56;;;;;;;8.90;8.30;;;27.60;60.00;;;;;;6250870;28;20238;-59
2021/06/04 10:34:04;;;;;;;8.90;8.33;;;27.40;59.90;;;;;;6250838;28;20258;-61
2021/06/04 10:37:12;;;;;;;8.63;8.00;;;27.40;60.30;;;;;;6242042;28;20700;-60
2021/06/04 10:40:22;;;;;;;9.90;9.00;;;27.50;60.60;;;;;;6225837;28;20322;-61
2021/06/04 10:43:40;;;;;;;9.33;8.50;;;27.90;60.00;;;;;;6226009;28;20243;-60
2021/06/04 10:46:53;;;;;;;10.00;9.20;;;28.10;59.90;;;;;;6225703;28;20310;-63
2021/06/04 10:50:06;;;;;;;9.47;8.70;;;28.10;59.50;;;;;;6225802;28;20231;-60
2021/06/04 10:53:20;;;;;;;9.50;8.67;;;28.30;59.20;;;;;;6225218;28;20228;-63
2021/06/04 10:56:31;;;;;;;10.23;9.50;;;28.30;58.80;;;;;;6225452;28;20255;-61
2021/06/04 10:59:41;;;;;;;9.97;9.17;;;28.50;59.50;;;;;;6225010;28;20356;-64
2021/06/04 11:02:54;;;;;;;9.87;9.13;;;28.20;59.80;;;;;;6231183;28;20662;-60
2021/06/04 11:06:09;;;;;;;10.00;9.30;;;28.20;59.70;;;;;;6248465;28;20239;-60
2021/06/04 11:09:20;;;;;;;10.27;9.53;;;28.40;59.60;;;;;;6250450;28;20228;-62
2021/06/04 11:12:39;;;;;;;10.70;9.80;;;28.70;58.40;;;;;;6249541;28;20243;-63
2021/06/04 11:15:55;;;;;;;10.90;10.07;;;28.60;58.10;;;;;;6250005;28;20232;-61
2021/06/04 11:19:10;;;;;;;9.00;8.50;;;28.50;58.90;;;;;;6249536;28;20232;-60
2021/06/04 11:22:17;;;;;;;10.90;10.03;;;28.60;59.70;;;;;;6237766;28;20228;-62
2021/06/04 11:25:32;;;;;;;9.97;9.20;;;28.60;58.90;;;;;;6243743;28;20242;-61
2021/06/04 11:28:42;;;;;;;10.00;9.13;;;28.60;58.60;;;;;;6248821;28;20223;-61
2021/06/04 11:31:58;;;;;;;11.00;10.13;;;28.60;58.90;;;;;;6230050;28;20669;-62
2021/06/04 11:35:07;;;;;;;10.37;9.67;;;28.50;59.20;;;;;;6237238;28;20618;-61
2021/06/04 11:38:15;;;;;;;10.17;8.90;;;28.50;59.50;;;;;;6225620;28;20231;-62
2021/06/04 11:41:23;;;;;;;9.40;8.67;;;28.30;59.40;;;;;;6224583;28;20232;-64
2021/06/04 11:44:30;;;;;;;10.57;9.67;;;28.40;59.60;;;;;;6239329;28;20235;-61
2021/06/04 11:47:38;;;;;;;9.93;9.27;;;28.40;59.30;;;;;;6237485;28;20220;-61
2021/06/04 11:50:42;;;;;;;8.73;8.17;;;28.70;59.00;;;;;;6237069;28;20196;-64
2021/06/04 11:53:46;;;;;;;9.23;8.50;;;29.00;57.50;;;;;;6242942;28;20196;-64
2021/06/04 11:56:54;;;;;;;10.03;9.33;;;29.00;57.90;;;;;;6239952;28;20214;-64
2021/06/04 12:00:30;;;;;;;9.70;8.80;;;28.90;57.60;;;;;;6234046;28;20572;-64
2021/06/04 12:03:47;;;;;;;10.03;9.07;;;28.70;57.90;;;;;;6247279;28;20223;-64
2021/06/04 12:07:04;;;;;;;9.83;9.07;;;28.90;57.50;;;;;;6253530;28;20235;-61
2021/06/04 12:10:09;;;;;;;8.87;8.17;;;29.10;57.20;;;;;;6236216;28;20235;-61
2021/06/04 12:13:30;;;;;;;9.53;8.40;;;29.20;56.70;;;;;;6235869;28;20674;-64
2021/06/04 12:16:34;;;;;;;8.93;8.23;;;28.40;58.30;;;;;;6243546;28;20239;-64
2021/06/04 12:19:41;;;;;;;9.80;9.00;;;28.50;57.90;;;;;;6238151;28;20303;-65
2021/06/04 12:22:49;;;;;;;9.90;9.10;;;28.50;56.70;;;;;;6239655;28;20231;-62
2021/06/04 12:26:01;;;;;;;8.70;8.20;;;28.60;57.20;;;;;;6232506;28;20228;-63
2021/06/04 12:29:40;;;;;;;8.80;8.10;;;28.70;57.80;;;;;;6228962;28;20228;-61
2021/06/04 12:33:02;;;;;;;9.20;8.50;;;28.60;55.80;;;;;;6227548;28;20243;-63
2021/06/04 12:36:46;;;;;;;8.87;8.00;;;28.50;56.00;;;;;;6228413;28;20232;-64
2021/06/04 12:40:19;;;;;;;9.20;8.47;;;28.60;57.10;;;;;;6228361;28;20378;-62
2021/06/04 12:43:26;;;;;;;8.13;7.60;;;28.70;56.70;;;;;;6238038;28;20223;-62
2021/06/04 12:46:28;;;;;;;8.40;7.70;;;28.40;56.30;;;;;;6238008;28;20255;-61
2021/06/04 12:49:32;;;;;;;9.20;8.40;;;28.30;56.50;;;;;;6239335;28;20230;-59
2021/06/04 12:52:35;;;;;;;8.50;7.90;;;28.30;55.00;;;;;;6238708;28;20678;-59
2021/06/04 12:55:41;;;;;;;8.33;7.80;;;28.00;55.30;;;;;;6233979;28;20700;-59
2021/06/04 12:58:47;;;;;;;8.20;7.60;;;28.20;56.10;;;;;;6239261;28;20544;-59
2021/06/04 13:01:57;;;;;;;8.93;8.30;;;28.40;56.00;;;;;;6238580;28;20239;-61
2021/06/04 13:05:08;;;;;;;8.30;7.50;;;28.40;55.10;;;;;;6240410;28;20238;-61
2021/06/04 13:08:15;;;;;;;7.50;6.90;;;28.50;54.90;;;;;;6250895;28;20685;-60
2021/06/04 13:11:43;;;;;;;7.70;7.20;;;28.40;54.40;;;;;;6239848;28;20244;-60
2021/06/04 13:14:48;;;;;;;7.77;7.13;;;28.30;54.30;;;;;;6252367;28;20562;-61
2021/06/04 13:17:57;;;;;;;7.50;6.90;;;28.10;54.10;;;;;;6252623;28;20231;-60
2021/06/04 13:21:14;;;;;;;7.80;7.00;;;28.00;54.80;;;;;;6252534;28;20231;-60
2021/06/04 13:24:28;;;;;;;8.07;7.47;;;28.10;55.40;;;;;;6252443;28;20246;-60
2021/06/04 13:27:34;;;;;;;7.73;7.23;;;28.00;55.60;;;;;;6254969;28;20565;-63
2021/06/04 13:30:40;;;;;;;7.00;6.40;;;28.00;55.50;;;;;;6276832;28;20243;-61
2021/06/04 13:33:47;;;;;;;8.33;7.13;;;28.20;55.10;;;;;;6276954;28;20231;-62
2021/06/04 13:36:51;;;;;;;7.63;7.13;;;28.20;55.60;;;;;;6275325;28;20242;-63
2021/06/04 13:39:55;;;;;;;7.97;7.37;;;28.10;54.90;;;;;;6274549;28;20249;-62
2021/06/04 13:43:04;;;;;;;7.40;6.90;;;28.10;55.00;;;;;;6256863;28;20212;-63
2021/06/04 13:46:12;;;;;;;7.67;7.07;;;27.90;54.90;;;;;;6238426;28;20231;-61
2021/06/04 13:49:25;;;;;;;10.20;7.17;;;28.00;54.90;;;;;;6249340;28;20235;-67
2021/06/04 13:52:28;;;;;;;7.70;7.10;;;28.20;55.90;;;;;;6249941;28;20232;-62
2021/06/04 13:55:32;;;;;;;7.47;6.80;;;28.10;55.70;;;;;;6251287;28;20239;-65
2021/06/04 13:58:39;;;;;;;7.70;7.07;;;27.80;55.50;;;;;;6262069;28;20559;-66
2021/06/04 14:01:49;;;;;;;7.27;6.67;;;27.70;55.70;;;;;;6261843;28;20242;-66
2021/06/04 14:04:55;;;;;;;7.73;7.10;;;27.80;55.00;;;;;;6272184;28;20238;-65
2021/06/04 14:08:05;;;;;;;7.33;6.83;;;28.00;54.70;;;;;;6275714;28;20223;-65
2021/06/04 14:11:17;;;;;;;7.30;6.80;;;28.00;54.40;;;;;;6274718;28;20272;-66
2021/06/04 14:14:29;;;;;;;7.53;6.73;;;27.90;54.10;;;;;;6252332;28;20235;-63
2021/06/04 14:17:37;;;;;;;7.60;6.90;;;27.90;54.90;;;;;;6251011;28;20212;-64
2021/06/04 14:20:43;;;;;;;7.93;6.93;;;27.80;55.50;;;;;;6250455;28;20220;-64
2021/06/04 14:23:56;;;;;;;7.97;7.37;;;27.70;55.70;;;;;;6250807;28;20606;-64
2021/06/04 14:27:05;;;;;;;8.17;7.47;;;27.90;55.40;;;;;;6250760;28;20570;-65
2021/06/04 14:30:29;;;;;;;7.10;6.60;;;28.00;54.70;;;;;;6249840;28;20236;-66
2021/06/04 14:33:39;;;;;;;7.67;7.00;;;27.40;55.10;;;;;;6250488;28;20228;-59
2021/06/04 14:36:42;;;;;;;8.40;7.70;;;27.40;55.10;;;;;;6250147;28;20229;-60
2021/06/04 14:39:48;;;;;;;7.20;6.60;;;27.40;55.70;;;;;;6250356;28;20238;-61
2021/06/04 14:42:52;;;;;;;7.23;6.57;;;27.50;55.30;;;;;;6250300;28;20239;-59
2021/06/04 14:45:57;;;;;;;7.20;6.50;;;27.50;55.20;;;;;;6250348;28;20243;-61
2021/06/04 14:49:06;;;;;;;7.33;6.90;;;27.60;55.40;;;;;;6250222;28;20231;-60
2021/06/04 14:52:09;;;;;;;7.13;6.53;;;27.80;55.10;;;;;;6250304;28;20234;-60
2021/06/04 14:55:16;;;;;;;7.37;6.80;;;27.80;54.50;;;;;;6250516;28;20232;-61
2021/06/04 14:58:19;;;;;;;8.33;7.63;;;28.00;54.70;;;;;;6249247;28;20231;-59
2021/06/04 15:01:23;;;;;;;8.30;7.23;;;28.00;54.30;;;;;;6249737;28;20254;-60
2021/06/04 15:04:26;;;;;;;7.80;7.13;;;28.10;54.00;;;;;;6233350;28;20286;-60
2021/06/04 15:07:29;;;;;;;7.10;6.60;;;28.20;54.30;;;;;;6257240;28;20257;-60
2021/06/04 15:10:32;;;;;;;8.00;7.40;;;28.20;54.40;;;;;;6274016;28;20229;-60
2021/06/04 15:13:39;;;;;;;7.83;7.13;;;28.20;54.40;;;;;;6257449;28;20227;-60
2021/06/04 15:16:47;;;;;;;10.13;7.60;;;28.00;54.40;;;;;;6249419;28;20370;-59
2021/06/04 15:19:50;;;;;;;7.60;7.10;;;27.90;55.20;;;;;;6248909;28;20246;-61
2021/06/04 15:22:53;;;;;;;7.80;6.97;;;27.90;55.50;;;;;;6248775;28;20237;-60
2021/06/04 15:25:57;;;;;;;8.13;7.60;;;28.10;55.50;;;;;;6248741;28;20231;-60
2021/06/04 15:29:00;;;;;;;7.30;6.80;;;28.10;55.70;;;;;;6247493;28;20219;-60
2021/06/04 15:32:06;;;;;;;8.87;8.27;;;28.00;55.40;;;;;;6248099;28;20594;-60
2021/06/04 15:35:10;;;;;;;7.43;6.87;;;28.20;55.70;;;;;;6247704;28;20581;-60
2021/06/04 15:38:13;;;;;;;7.47;6.97;;;28.20;54.80;;;;;;6244671;28;20243;-59
2021/06/04 15:41:16;;;;;;;7.97;7.30;;;28.20;55.00;;;;;;6231857;28;20227;-59
2021/06/04 15:44:19;;;;;;;8.30;7.70;;;28.40;55.00;;;;;;6234787;28;20224;-59
2021/06/04 15:47:37;;;;;;;8.40;7.70;;;28.40;55.00;;;;;;6233746;28;20238;-60
2021/06/04 15:50:41;;;;;;;8.13;7.53;;;28.50;55.20;;;;;;6234147;28;20211;-59
2021/06/04 15:53:47;;;;;;;9.30;8.60;;;28.50;54.80;;;;;;6248919;28;20665;-59
2021/06/04 15:56:50;;;;;;;7.97;7.23;;;28.40;55.30;;;;;;6249271;28;20192;-59
2021/06/04 15:59:56;;;;;;;8.10;7.60;;;28.50;55.20;;;;;;6248501;28;20666;-59
2021/06/04 16:03:01;;;;;;;8.40;7.80;;;27.90;56.10;;;;;;6249202;28;20238;-60
2021/06/04 16:06:07;;;;;;;7.97;7.47;;;27.60;57.00;;;;;;6240439;28;20254;-59
2021/06/04 16:09:12;;;;;;;9.10;8.20;;;27.50;56.90;;;;;;6248817;28;20228;-59
2021/06/04 16:12:16;;;;;;;8.20;7.60;;;27.50;57.20;;;;;;6248747;28;20637;-59
2021/06/04 16:15:21;;;;;;;8.80;8.10;;;27.40;57.70;;;;;;6248537;28;20697;-59